ENY4098 KMIA-KOMA
Flight info
| Callsign | ENY4098 |
|---|---|
| Flight time | N/A |
| Altitude | 38000 |
| Route | HURCN4 SMELZ Q110 JOKKY LGC GAD RQZ DEPEC ENL BAYLI CHASY DSM LANTK2 |
| Aircraft | E75L/M-SDE3GILORVW/S |
Departure
| Time | N/A |
|---|---|
| Airport | Miami International Airport (KMIA) |
Arrival
| Time | 2026-04-30 01:08 |
|---|---|
| Airport | Eppley Airfield (KOMA) |
| Time | Latitude | Longitude | Altitude | Speed | Heading |
|---|---|---|---|---|---|
| 2026-04-29 22:26 | 29.93755 | -83.45591 | 37976 ft | 385 kts | 326° |
| 2026-04-29 22:27 | 29.96009 | -83.47261 | 37991 ft | 385 kts | 325° |
| 2026-04-29 22:27 | 30.00496 | -83.50588 | 37974 ft | 382 kts | 325° |
| 2026-04-29 22:28 | 30.04978 | -83.53914 | 37970 ft | 383 kts | 324° |
| 2026-04-29 22:28 | 30.09469 | -83.57251 | 37973 ft | 384 kts | 324° |
| 2026-04-29 22:29 | 30.13200 | -83.60026 | 37973 ft | 384 kts | 324° |
| 2026-04-29 22:29 | 30.18445 | -83.63929 | 37972 ft | 384 kts | 326° |
| 2026-04-29 22:30 | 30.23289 | -83.66633 | 37969 ft | 388 kts | 331° |
| 2026-04-29 22:30 | 30.28180 | -83.69235 | 37953 ft | 385 kts | 330° |
| 2026-04-29 22:31 | 30.33050 | -83.71813 | 37973 ft | 385 kts | 330° |
| 2026-04-29 22:31 | 30.37930 | -83.74397 | 37960 ft | 386 kts | 330° |
| 2026-04-29 22:32 | 30.42808 | -83.76979 | 37958 ft | 386 kts | 330° |
| 2026-04-29 22:32 | 30.47688 | -83.79567 | 37955 ft | 386 kts | 330° |
| 2026-04-29 22:33 | 30.52566 | -83.82156 | 37951 ft | 386 kts | 330° |
| 2026-04-29 22:33 | 30.57444 | -83.84748 | 37949 ft | 386 kts | 330° |
| 2026-04-29 22:34 | 30.62322 | -83.87343 | 37940 ft | 386 kts | 330° |
| 2026-04-29 22:34 | 30.67167 | -83.89922 | 37941 ft | 386 kts | 330° |
| 2026-04-29 22:35 | 30.72046 | -83.92525 | 37927 ft | 388 kts | 330° |
| 2026-04-29 22:35 | 30.76976 | -83.95157 | 37948 ft | 392 kts | 330° |
| 2026-04-29 22:36 | 30.81136 | -83.97379 | 37932 ft | 393 kts | 330° |
| 2026-04-29 22:36 | 30.86089 | -84.00027 | 37925 ft | 390 kts | 330° |
| 2026-04-29 22:37 | 30.91016 | -84.02665 | 37942 ft | 390 kts | 330° |
| 2026-04-29 22:37 | 30.95947 | -84.05308 | 37930 ft | 390 kts | 330° |
| 2026-04-29 22:38 | 31.00880 | -84.07956 | 37928 ft | 390 kts | 330° |
| 2026-04-29 22:38 | 31.05811 | -84.10605 | 37929 ft | 390 kts | 330° |
| 2026-04-29 22:39 | 31.10746 | -84.13260 | 37929 ft | 390 kts | 330° |
| 2026-04-29 22:39 | 31.15658 | -84.15904 | 37937 ft | 387 kts | 330° |
| 2026-04-29 22:40 | 31.20552 | -84.18543 | 37934 ft | 388 kts | 330° |
| 2026-04-29 22:40 | 31.25454 | -84.21190 | 37927 ft | 388 kts | 330° |
| 2026-04-29 22:41 | 31.30323 | -84.23821 | 37922 ft | 388 kts | 330° |
| 2026-04-29 22:41 | 31.35220 | -84.26470 | 37922 ft | 388 kts | 330° |
| 2026-04-29 22:42 | 31.40122 | -84.29125 | 37961 ft | 388 kts | 329° |
| 2026-04-29 22:42 | 31.44984 | -84.31759 | 37940 ft | 384 kts | 329° |
| 2026-04-29 22:43 | 31.49834 | -84.34395 | 37936 ft | 385 kts | 329° |
| 2026-04-29 22:43 | 31.54688 | -84.37033 | 37934 ft | 384 kts | 329° |
| 2026-04-29 22:44 | 31.59542 | -84.39674 | 37929 ft | 384 kts | 329° |
| 2026-04-29 22:44 | 31.64389 | -84.42314 | 37926 ft | 384 kts | 329° |
| 2026-04-29 22:45 | 31.69241 | -84.44960 | 37920 ft | 383 kts | 329° |
| 2026-04-29 22:45 | 31.74039 | -84.47583 | 37928 ft | 380 kts | 329° |
| 2026-04-29 22:46 | 31.78836 | -84.50209 | 37919 ft | 381 kts | 329° |
| 2026-04-29 22:46 | 31.83635 | -84.52836 | 37919 ft | 380 kts | 329° |
| 2026-04-29 22:47 | 31.88429 | -84.55462 | 37927 ft | 380 kts | 329° |
| 2026-04-29 22:47 | 31.93191 | -84.58074 | 37926 ft | 380 kts | 329° |
| 2026-04-29 22:48 | 31.97983 | -84.60704 | 37886 ft | 377 kts | 328° |
| 2026-04-29 22:48 | 32.02687 | -84.63289 | 37942 ft | 373 kts | 328° |
| 2026-04-29 22:49 | 32.07406 | -84.65889 | 37911 ft | 375 kts | 328° |
| 2026-04-29 22:49 | 32.12134 | -84.68493 | 37926 ft | 376 kts | 327° |
| 2026-04-29 22:50 | 32.16894 | -84.71115 | 37917 ft | 377 kts | 327° |
| 2026-04-29 22:50 | 32.21652 | -84.73741 | 37908 ft | 377 kts | 327° |
| 2026-04-29 22:51 | 32.26398 | -84.76363 | 37873 ft | 373 kts | 328° |
| 2026-04-29 22:51 | 32.33420 | -84.80251 | 37908 ft | 372 kts | 327° |
| 2026-04-29 22:52 | 32.38111 | -84.82853 | 37918 ft | 372 kts | 327° |
| 2026-04-29 22:52 | 32.42799 | -84.85456 | 37925 ft | 372 kts | 327° |
| 2026-04-29 22:53 | 32.47484 | -84.88061 | 37926 ft | 372 kts | 327° |
| 2026-04-29 22:53 | 32.52170 | -84.90668 | 37974 ft | 372 kts | 327° |
| 2026-04-29 22:54 | 32.56814 | -84.93252 | 37936 ft | 367 kts | 327° |
| 2026-04-29 22:54 | 32.61451 | -84.95840 | 37922 ft | 369 kts | 327° |
| 2026-04-29 22:55 | 32.66090 | -84.98433 | 37928 ft | 368 kts | 327° |
| 2026-04-29 22:55 | 32.70727 | -85.01024 | 37944 ft | 369 kts | 327° |
| 2026-04-29 22:56 | 32.75367 | -85.03621 | 37949 ft | 369 kts | 327° |
| 2026-04-29 22:56 | 32.80001 | -85.06216 | 37961 ft | 368 kts | 326° |
| 2026-04-29 22:57 | 32.84597 | -85.08795 | 37955 ft | 364 kts | 326° |
| 2026-04-29 22:57 | 32.89187 | -85.11379 | 37949 ft | 365 kts | 326° |
| 2026-04-29 22:58 | 32.93780 | -85.13958 | 37956 ft | 365 kts | 326° |
| 2026-04-29 22:58 | 32.98379 | -85.16544 | 37952 ft | 365 kts | 326° |
| 2026-04-29 22:59 | 33.02968 | -85.19133 | 37953 ft | 365 kts | 326° |
| 2026-04-29 22:59 | 33.07084 | -85.22425 | 38000 ft | 355 kts | 316° |
| 2026-04-29 23:00 | 33.11022 | -85.26005 | 37922 ft | 355 kts | 315° |
| 2026-04-29 23:00 | 33.14913 | -85.29625 | 37947 ft | 355 kts | 315° |
| 2026-04-29 23:01 | 33.18796 | -85.33275 | 37937 ft | 355 kts | 315° |
| 2026-04-29 23:01 | 33.22674 | -85.36932 | 37933 ft | 355 kts | 315° |
| 2026-04-29 23:02 | 33.26548 | -85.40592 | 37945 ft | 355 kts | 315° |
| 2026-04-29 23:02 | 33.30419 | -85.44260 | 37941 ft | 356 kts | 314° |
| 2026-04-29 23:03 | 33.34309 | -85.47949 | 37934 ft | 357 kts | 315° |
| 2026-04-29 23:03 | 33.38203 | -85.51636 | 37936 ft | 357 kts | 315° |
| 2026-04-29 23:04 | 33.42101 | -85.55330 | 37933 ft | 357 kts | 315° |
| 2026-04-29 23:04 | 33.45997 | -85.59031 | 37932 ft | 357 kts | 315° |
| 2026-04-29 23:05 | 33.49885 | -85.62729 | 37927 ft | 357 kts | 315° |
| 2026-04-29 23:05 | 33.53774 | -85.66432 | 37921 ft | 357 kts | 315° |
| 2026-04-29 23:06 | 33.57630 | -85.70109 | 37928 ft | 357 kts | 315° |
| 2026-04-29 23:06 | 33.61516 | -85.73815 | 37949 ft | 357 kts | 315° |
| 2026-04-29 23:07 | 33.65372 | -85.77497 | 37923 ft | 352 kts | 314° |
| 2026-04-29 23:07 | 33.69210 | -85.81171 | 37912 ft | 353 kts | 314° |
| 2026-04-29 23:08 | 33.73050 | -85.84852 | 37917 ft | 353 kts | 314° |
| 2026-04-29 23:08 | 33.76884 | -85.88532 | 37939 ft | 353 kts | 314° |
| 2026-04-29 23:09 | 33.80725 | -85.92219 | 37935 ft | 353 kts | 314° |
| 2026-04-29 23:09 | 33.84557 | -85.95904 | 37931 ft | 353 kts | 314° |
| 2026-04-29 23:10 | 33.88393 | -85.99596 | 37926 ft | 353 kts | 314° |
| 2026-04-29 23:10 | 33.92218 | -86.03281 | 37927 ft | 350 kts | 314° |
| 2026-04-29 23:11 | 33.96021 | -86.06951 | 37925 ft | 351 kts | 314° |
| 2026-04-29 23:11 | 34.00220 | -86.10106 | 37947 ft | 359 kts | 321° |
| 2026-04-29 23:12 | 34.04581 | -86.13059 | 37924 ft | 359 kts | 322° |
| 2026-04-29 23:12 | 34.08957 | -86.15974 | 37925 ft | 360 kts | 322° |
| 2026-04-29 23:13 | 34.13343 | -86.18882 | 37923 ft | 360 kts | 322° |
| 2026-04-29 23:13 | 34.17728 | -86.21790 | 37903 ft | 360 kts | 322° |
| 2026-04-29 23:14 | 34.22102 | -86.24692 | 37944 ft | 359 kts | 321° |
| 2026-04-29 23:14 | 34.26481 | -86.27601 | 37932 ft | 359 kts | 321° |
| 2026-04-29 23:15 | 34.30858 | -86.30511 | 37937 ft | 359 kts | 321° |
| 2026-04-29 23:15 | 34.35231 | -86.33423 | 37936 ft | 359 kts | 321° |
| 2026-04-29 23:16 | 34.39575 | -86.36320 | 37934 ft | 359 kts | 321° |
| 2026-04-29 23:16 | 34.43956 | -86.39245 | 37905 ft | 361 kts | 321° |
| 2026-04-29 23:17 | 34.48350 | -86.42188 | 37931 ft | 361 kts | 321° |
| 2026-04-29 23:17 | 34.52749 | -86.45131 | 37928 ft | 361 kts | 321° |
| 2026-04-29 23:18 | 34.57147 | -86.48076 | 37926 ft | 361 kts | 321° |
| 2026-04-29 23:18 | 34.61553 | -86.51028 | 37927 ft | 361 kts | 321° |
| 2026-04-29 23:19 | 34.65955 | -86.53979 | 37924 ft | 360 kts | 321° |
| 2026-04-29 23:19 | 34.70342 | -86.56930 | 37914 ft | 363 kts | 320° |
| 2026-04-29 23:20 | 34.74774 | -86.59916 | 37928 ft | 365 kts | 320° |
| 2026-04-29 23:20 | 34.79210 | -86.62903 | 37953 ft | 364 kts | 320° |
| 2026-04-29 23:21 | 34.83649 | -86.65875 | 37953 ft | 365 kts | 320° |
| 2026-04-29 23:21 | 34.88099 | -86.68840 | 37950 ft | 365 kts | 320° |
| 2026-04-29 23:22 | 34.92548 | -86.71810 | 37951 ft | 365 kts | 320° |
| 2026-04-29 23:22 | 34.96243 | -86.74282 | 37941 ft | 365 kts | 319° |
| 2026-04-29 23:23 | 35.00686 | -86.77257 | 37963 ft | 364 kts | 319° |
| 2026-04-29 23:23 | 35.05130 | -86.80240 | 37956 ft | 364 kts | 319° |
| 2026-04-29 23:24 | 35.09574 | -86.83228 | 37957 ft | 365 kts | 319° |
| 2026-04-29 23:24 | 35.14017 | -86.86214 | 37955 ft | 365 kts | 319° |
| 2026-04-29 23:25 | 35.18463 | -86.89206 | 37953 ft | 364 kts | 319° |
| 2026-04-29 23:25 | 35.22903 | -86.92197 | 37934 ft | 364 kts | 317° |
| 2026-04-29 23:26 | 35.27313 | -86.95172 | 37976 ft | 362 kts | 317° |
| 2026-04-29 23:26 | 35.31729 | -86.98159 | 37970 ft | 363 kts | 317° |
| 2026-04-29 23:27 | 35.36155 | -87.01153 | 37978 ft | 363 kts | 317° |
| 2026-04-29 23:27 | 35.40578 | -87.04144 | 37965 ft | 363 kts | 317° |
| 2026-04-29 23:28 | 35.44999 | -87.07138 | 37974 ft | 363 kts | 317° |
| 2026-04-29 23:28 | 35.49424 | -87.10145 | 37963 ft | 364 kts | 317° |
| 2026-04-29 23:29 | 35.53859 | -87.13158 | 37975 ft | 364 kts | 317° |
| 2026-04-29 23:29 | 35.58285 | -87.16171 | 37970 ft | 364 kts | 317° |
| 2026-04-29 23:30 | 35.62713 | -87.19189 | 37979 ft | 364 kts | 317° |
| 2026-04-29 23:30 | 35.67134 | -87.22206 | 37983 ft | 363 kts | 317° |
| 2026-04-29 23:31 | 35.71556 | -87.25227 | 37976 ft | 364 kts | 317° |
| 2026-04-29 23:31 | 35.75980 | -87.28255 | 37979 ft | 362 kts | 316° |
| 2026-04-29 23:32 | 35.80398 | -87.31284 | 37982 ft | 364 kts | 316° |
| 2026-04-29 23:32 | 35.84825 | -87.34321 | 37991 ft | 365 kts | 316° |
| 2026-04-29 23:33 | 35.89276 | -87.37376 | 37989 ft | 366 kts | 316° |
| 2026-04-29 23:33 | 35.93715 | -87.40430 | 37990 ft | 366 kts | 316° |
| 2026-04-29 23:34 | 35.98133 | -87.43472 | 37992 ft | 366 kts | 316° |
| 2026-04-29 23:34 | 36.02579 | -87.46536 | 37990 ft | 365 kts | 316° |
| 2026-04-29 23:35 | 36.07019 | -87.49603 | 37992 ft | 366 kts | 316° |
| 2026-04-29 23:35 | 36.11465 | -87.52675 | 37988 ft | 366 kts | 316° |
| 2026-04-29 23:36 | 36.15925 | -87.55721 | 37993 ft | 366 kts | 317° |
| 2026-04-29 23:36 | 36.20387 | -87.58776 | 37998 ft | 367 kts | 317° |
| 2026-04-29 23:37 | 36.24848 | -87.61836 | 37956 ft | 365 kts | 316° |
| 2026-04-29 23:37 | 36.29269 | -87.64870 | 38011 ft | 364 kts | 316° |
| 2026-04-29 23:38 | 36.33698 | -87.67919 | 38002 ft | 364 kts | 316° |
| 2026-04-29 23:38 | 36.38120 | -87.70966 | 38011 ft | 364 kts | 316° |
| 2026-04-29 23:39 | 36.42541 | -87.74015 | 38001 ft | 363 kts | 316° |
| 2026-04-29 23:39 | 36.46958 | -87.77065 | 38001 ft | 363 kts | 316° |
| 2026-04-29 23:40 | 36.51373 | -87.80116 | 37995 ft | 362 kts | 316° |
| 2026-04-29 23:40 | 36.55775 | -87.83164 | 38008 ft | 362 kts | 316° |
| 2026-04-29 23:41 | 36.60170 | -87.86212 | 38006 ft | 362 kts | 316° |
| 2026-04-29 23:41 | 36.64573 | -87.89269 | 38008 ft | 362 kts | 316° |
| 2026-04-29 23:42 | 36.68970 | -87.92325 | 38006 ft | 362 kts | 316° |
| 2026-04-29 23:42 | 36.73370 | -87.95386 | 38079 ft | 362 kts | 316° |
| 2026-04-29 23:43 | 36.77791 | -87.98469 | 38012 ft | 364 kts | 316° |
| 2026-04-29 23:43 | 36.82213 | -88.01555 | 38009 ft | 364 kts | 316° |
| 2026-04-29 23:44 | 36.86634 | -88.04644 | 38009 ft | 364 kts | 316° |
| 2026-04-29 23:44 | 36.91052 | -88.07735 | 38000 ft | 364 kts | 316° |
| 2026-04-29 23:45 | 36.95472 | -88.10833 | 38008 ft | 365 kts | 316° |
| 2026-04-29 23:45 | 36.99915 | -88.13955 | 37960 ft | 369 kts | 316° |
| 2026-04-29 23:46 | 37.04382 | -88.17090 | 38011 ft | 369 kts | 316° |
| 2026-04-29 23:46 | 37.08864 | -88.20242 | 38016 ft | 369 kts | 316° |
| 2026-04-29 23:47 | 37.13346 | -88.23398 | 38024 ft | 369 kts | 316° |
| 2026-04-29 23:47 | 37.17819 | -88.26553 | 38025 ft | 369 kts | 316° |
| 2026-04-29 23:48 | 37.22296 | -88.29716 | 38084 ft | 370 kts | 316° |
| 2026-04-29 23:48 | 37.26810 | -88.32913 | 38036 ft | 374 kts | 317° |
| 2026-04-29 23:49 | 37.31351 | -88.36126 | 38026 ft | 375 kts | 317° |
| 2026-04-29 23:49 | 37.35893 | -88.39349 | 38021 ft | 375 kts | 317° |
| 2026-04-29 23:50 | 37.40405 | -88.42553 | 38029 ft | 375 kts | 317° |
| 2026-04-29 23:51 | 37.47213 | -88.47396 | 38087 ft | 376 kts | 317° |
| 2026-04-29 23:51 | 37.51801 | -88.50672 | 38054 ft | 381 kts | 317° |
| 2026-04-29 23:52 | 37.56414 | -88.53963 | 38047 ft | 381 kts | 317° |
| 2026-04-29 23:52 | 37.61023 | -88.57256 | 38049 ft | 381 kts | 317° |
| 2026-04-29 23:53 | 37.65627 | -88.60552 | 38053 ft | 381 kts | 317° |
| 2026-04-29 23:53 | 37.70239 | -88.63859 | 38055 ft | 381 kts | 317° |
| 2026-04-29 23:54 | 37.74863 | -88.67179 | 38054 ft | 383 kts | 318° |
| 2026-04-29 23:54 | 37.79500 | -88.70513 | 38052 ft | 383 kts | 318° |
| 2026-04-29 23:55 | 37.84135 | -88.73847 | 38058 ft | 383 kts | 318° |
| 2026-04-29 23:55 | 37.88769 | -88.77192 | 38056 ft | 383 kts | 318° |
| 2026-04-29 23:56 | 37.93404 | -88.80537 | 38057 ft | 383 kts | 318° |
| 2026-04-29 23:56 | 37.98051 | -88.83901 | 38051 ft | 385 kts | 319° |
| 2026-04-29 23:57 | 38.02707 | -88.87269 | 38064 ft | 386 kts | 319° |
| 2026-04-29 23:57 | 38.07370 | -88.90649 | 38061 ft | 386 kts | 319° |
| 2026-04-29 23:58 | 38.12027 | -88.94033 | 38061 ft | 386 kts | 319° |
| 2026-04-29 23:58 | 38.16688 | -88.97424 | 38061 ft | 386 kts | 319° |
| 2026-04-29 23:59 | 38.21347 | -89.00823 | 38018 ft | 384 kts | 319° |
| 2026-04-29 23:59 | 38.25976 | -89.04199 | 38069 ft | 384 kts | 319° |
| 2026-04-30 00:00 | 38.30615 | -89.07591 | 38065 ft | 384 kts | 319° |
| 2026-04-30 00:00 | 38.35254 | -89.10977 | 38065 ft | 384 kts | 319° |
| 2026-04-30 00:01 | 38.39891 | -89.14376 | 38064 ft | 385 kts | 319° |
| 2026-04-30 00:01 | 38.42009 | -89.16327 | 38082 ft | 368 kts | 306° |
| 2026-04-30 00:01 | 38.43685 | -89.18687 | 38117 ft | 364 kts | 304° |
| 2026-04-30 00:02 | 38.47103 | -89.23474 | 38062 ft | 364 kts | 303° |
| 2026-04-30 00:02 | 38.50460 | -89.28289 | 38074 ft | 362 kts | 303° |
| 2026-04-30 00:03 | 38.53792 | -89.33121 | 38070 ft | 363 kts | 303° |
| 2026-04-30 00:03 | 38.57117 | -89.37961 | 38072 ft | 363 kts | 303° |
| 2026-04-30 00:04 | 38.60442 | -89.42810 | 38071 ft | 362 kts | 303° |
| 2026-04-30 00:04 | 38.63763 | -89.47662 | 38066 ft | 362 kts | 303° |
| 2026-04-30 00:05 | 38.67085 | -89.52525 | 38040 ft | 364 kts | 303° |
| 2026-04-30 00:05 | 38.70408 | -89.57393 | 38078 ft | 363 kts | 303° |
| 2026-04-30 00:06 | 38.73731 | -89.62270 | 38076 ft | 363 kts | 303° |
| 2026-04-30 00:06 | 38.77051 | -89.67148 | 38076 ft | 363 kts | 303° |
| 2026-04-30 00:07 | 38.80369 | -89.72032 | 38074 ft | 363 kts | 303° |
| 2026-04-30 00:07 | 38.83685 | -89.76922 | 38074 ft | 363 kts | 303° |
| 2026-04-30 00:08 | 38.86998 | -89.81814 | 38079 ft | 363 kts | 303° |
| 2026-04-30 00:08 | 38.90311 | -89.86716 | 38050 ft | 366 kts | 303° |
| 2026-04-30 00:09 | 38.93103 | -89.90852 | 38079 ft | 366 kts | 303° |
| 2026-04-30 00:09 | 38.96437 | -89.95794 | 38075 ft | 366 kts | 303° |
| 2026-04-30 00:10 | 38.99743 | -90.00703 | 38079 ft | 365 kts | 303° |
| 2026-04-30 00:10 | 39.03062 | -90.05641 | 38086 ft | 365 kts | 303° |
| 2026-04-30 00:11 | 39.06383 | -90.10589 | 38082 ft | 365 kts | 303° |
| 2026-04-30 00:11 | 39.09698 | -90.15538 | 38085 ft | 365 kts | 303° |
| 2026-04-30 00:12 | 39.13016 | -90.20499 | 38091 ft | 368 kts | 303° |
| 2026-04-30 00:12 | 39.16361 | -90.25507 | 38085 ft | 370 kts | 303° |
| 2026-04-30 00:13 | 39.19713 | -90.30533 | 38085 ft | 369 kts | 303° |
| 2026-04-30 00:13 | 39.23060 | -90.35559 | 38091 ft | 369 kts | 303° |
| 2026-04-30 00:14 | 39.26403 | -90.40587 | 38093 ft | 369 kts | 303° |
| 2026-04-30 00:14 | 39.29748 | -90.45625 | 38090 ft | 369 kts | 303° |
| 2026-04-30 00:15 | 39.33089 | -90.50668 | 38092 ft | 369 kts | 303° |
| 2026-04-30 00:15 | 39.36434 | -90.55727 | 38055 ft | 374 kts | 303° |
| 2026-04-30 00:16 | 39.39810 | -90.60838 | 38095 ft | 375 kts | 303° |
| 2026-04-30 00:16 | 39.43193 | -90.65964 | 38096 ft | 375 kts | 303° |
| 2026-04-30 00:17 | 39.46570 | -90.71095 | 38093 ft | 374 kts | 303° |
| 2026-04-30 00:17 | 39.49943 | -90.76226 | 38096 ft | 374 kts | 303° |
| 2026-04-30 00:18 | 39.53314 | -90.81355 | 38098 ft | 373 kts | 303° |
| 2026-04-30 00:18 | 39.56675 | -90.86487 | 38099 ft | 374 kts | 303° |
| 2026-04-30 00:19 | 39.60048 | -90.91649 | 38097 ft | 377 kts | 303° |
| 2026-04-30 00:19 | 39.63441 | -90.96846 | 38131 ft | 378 kts | 303° |
| 2026-04-30 00:20 | 39.66832 | -91.02041 | 38125 ft | 377 kts | 303° |
| 2026-04-30 00:20 | 39.70225 | -91.07248 | 38134 ft | 377 kts | 303° |
| 2026-04-30 00:21 | 39.73546 | -91.12510 | 38126 ft | 376 kts | 302° |
| 2026-04-30 00:21 | 39.76825 | -91.17814 | 38126 ft | 376 kts | 302° |
| 2026-04-30 00:22 | 39.80113 | -91.23113 | 38144 ft | 376 kts | 303° |
| 2026-04-30 00:22 | 39.83430 | -91.28458 | 38108 ft | 381 kts | 303° |
| 2026-04-30 00:23 | 39.86762 | -91.33831 | 38107 ft | 381 kts | 303° |
| 2026-04-30 00:23 | 39.90087 | -91.39203 | 38101 ft | 381 kts | 303° |
| 2026-04-30 00:24 | 39.93410 | -91.44581 | 38100 ft | 381 kts | 303° |
| 2026-04-30 00:24 | 39.96731 | -91.49963 | 38116 ft | 381 kts | 303° |
| 2026-04-30 00:25 | 40.00048 | -91.55351 | 38123 ft | 381 kts | 303° |
| 2026-04-30 00:25 | 40.03370 | -91.60757 | 38089 ft | 385 kts | 303° |
| 2026-04-30 00:26 | 40.06720 | -91.66214 | 38116 ft | 385 kts | 303° |
| 2026-04-30 00:26 | 40.10068 | -91.71680 | 38122 ft | 385 kts | 303° |
| 2026-04-30 00:27 | 40.13411 | -91.77146 | 38128 ft | 385 kts | 303° |
| 2026-04-30 00:27 | 40.16751 | -91.82618 | 38125 ft | 385 kts | 303° |
| 2026-04-30 00:28 | 40.20092 | -91.88100 | 38129 ft | 385 kts | 303° |
| 2026-04-30 00:28 | 40.23429 | -91.93591 | 38129 ft | 386 kts | 303° |
| 2026-04-30 00:29 | 40.26779 | -91.99108 | 38140 ft | 388 kts | 303° |
| 2026-04-30 00:29 | 40.30136 | -92.04647 | 38136 ft | 388 kts | 303° |
| 2026-04-30 00:30 | 40.33486 | -92.10180 | 38137 ft | 388 kts | 303° |
| 2026-04-30 00:30 | 40.36831 | -92.15728 | 38139 ft | 388 kts | 303° |
| 2026-04-30 00:31 | 40.40176 | -92.21280 | 38138 ft | 388 kts | 303° |
| 2026-04-30 00:31 | 40.43515 | -92.26838 | 38141 ft | 388 kts | 303° |
| 2026-04-30 00:32 | 40.46864 | -92.32417 | 38121 ft | 391 kts | 303° |
| 2026-04-30 00:32 | 40.48309 | -92.35389 | 38144 ft | 384 kts | 288° |
| 2026-04-30 00:32 | 40.48756 | -92.38808 | 38183 ft | 382 kts | 268° |
| 2026-04-30 00:33 | 40.47814 | -92.45726 | 38082 ft | 388 kts | 259° |
| 2026-04-30 00:33 | 40.46506 | -92.52551 | 38134 ft | 385 kts | 259° |
| 2026-04-30 00:34 | 40.45657 | -92.59458 | 38140 ft | 383 kts | 269° |
| 2026-04-30 00:34 | 40.46119 | -92.66390 | 38141 ft | 382 kts | 281° |
| 2026-04-30 00:35 | 40.47591 | -92.73105 | 38126 ft | 384 kts | 289° |
| 2026-04-30 00:35 | 40.49957 | -92.79416 | 38135 ft | 386 kts | 295° |
| 2026-04-30 00:36 | 40.52627 | -92.85554 | 38129 ft | 387 kts | 296° |
| 2026-04-30 00:36 | 40.55348 | -92.91661 | 38136 ft | 387 kts | 297° |
| 2026-04-30 00:37 | 40.58078 | -92.97764 | 38139 ft | 387 kts | 296° |
| 2026-04-30 00:37 | 40.60803 | -93.03878 | 38138 ft | 387 kts | 296° |
| 2026-04-30 00:38 | 40.63523 | -93.09985 | 38133 ft | 386 kts | 296° |
| 2026-04-30 00:38 | 40.66239 | -93.16090 | 38141 ft | 386 kts | 296° |
| 2026-04-30 00:39 | 40.68964 | -93.22194 | 38139 ft | 386 kts | 296° |
| 2026-04-30 00:39 | 40.71676 | -93.28311 | 38136 ft | 386 kts | 297° |
| 2026-04-30 00:40 | 40.74384 | -93.34425 | 38135 ft | 386 kts | 296° |
| 2026-04-30 00:40 | 40.77092 | -93.40540 | 38133 ft | 386 kts | 297° |
| 2026-04-30 00:41 | 40.79784 | -93.46670 | 37973 ft | 388 kts | 296° |
| 2026-04-30 00:41 | 40.81137 | -93.49762 | 37537 ft | 389 kts | 296° |
| 2026-04-30 00:41 | 40.82492 | -93.52846 | 37147 ft | 387 kts | 296° |
| 2026-04-30 00:41 | 40.83836 | -93.55923 | 36753 ft | 386 kts | 296° |
| 2026-04-30 00:42 | 40.85173 | -93.58983 | 36400 ft | 385 kts | 296° |
| 2026-04-30 00:42 | 40.86521 | -93.62057 | 35943 ft | 388 kts | 296° |
| 2026-04-30 00:42 | 40.87859 | -93.65097 | 35461 ft | 389 kts | 296° |
| 2026-04-30 00:42 | 40.89207 | -93.68189 | 34992 ft | 388 kts | 296° |
| 2026-04-30 00:43 | 40.90549 | -93.71278 | 34533 ft | 387 kts | 296° |
| 2026-04-30 00:43 | 40.91891 | -93.74359 | 34055 ft | 387 kts | 296° |
| 2026-04-30 00:43 | 40.93233 | -93.77445 | 33513 ft | 387 kts | 296° |
| 2026-04-30 00:43 | 40.94578 | -93.80536 | 32982 ft | 388 kts | 297° |
| 2026-04-30 00:44 | 40.95929 | -93.83641 | 32437 ft | 391 kts | 297° |
| 2026-04-30 00:44 | 40.97283 | -93.86761 | 31912 ft | 393 kts | 297° |
| 2026-04-30 00:44 | 40.98649 | -93.89899 | 31372 ft | 394 kts | 297° |
| 2026-04-30 00:44 | 41.00007 | -93.93030 | 30741 ft | 389 kts | 297° |
| 2026-04-30 00:45 | 41.01363 | -93.96152 | 30121 ft | 393 kts | 297° |
| 2026-04-30 00:45 | 41.02729 | -93.99302 | 29400 ft | 397 kts | 297° |
| 2026-04-30 00:45 | 41.04101 | -94.02455 | 28696 ft | 390 kts | 297° |
| 2026-04-30 00:45 | 41.05416 | -94.05516 | 27990 ft | 366 kts | 297° |
| 2026-04-30 00:46 | 41.06661 | -94.08410 | 27372 ft | 358 kts | 297° |
| 2026-04-30 00:46 | 41.07777 | -94.11332 | 26731 ft | 355 kts | 291° |
| 2026-04-30 00:46 | 41.08543 | -94.14388 | 26103 ft | 355 kts | 282° |
| 2026-04-30 00:46 | 41.08876 | -94.17675 | 25477 ft | 357 kts | 276° |
| 2026-04-30 00:47 | 41.09029 | -94.20904 | 24825 ft | 354 kts | 275° |
| 2026-04-30 00:47 | 41.09154 | -94.24147 | 24159 ft | 350 kts | 275° |
| 2026-04-30 00:47 | 41.09269 | -94.27350 | 23470 ft | 346 kts | 275° |
| 2026-04-30 00:47 | 41.09378 | -94.30522 | 22695 ft | 343 kts | 275° |
| 2026-04-30 00:48 | 41.09487 | -94.33667 | 21944 ft | 340 kts | 275° |
| 2026-04-30 00:48 | 41.09597 | -94.36830 | 21200 ft | 338 kts | 275° |
| 2026-04-30 00:48 | 41.09709 | -94.39930 | 20485 ft | 336 kts | 275° |
| 2026-04-30 00:48 | 41.09821 | -94.42992 | 19782 ft | 326 kts | 275° |
| 2026-04-30 00:49 | 41.09932 | -94.45965 | 19099 ft | 321 kts | 275° |
| 2026-04-30 00:49 | 41.10047 | -94.48904 | 18438 ft | 318 kts | 275° |
| 2026-04-30 00:49 | 41.10163 | -94.51823 | 17681 ft | 315 kts | 275° |
| 2026-04-30 00:49 | 41.10268 | -94.54677 | 16945 ft | 313 kts | 275° |
| 2026-04-30 00:50 | 41.10356 | -94.57549 | 16206 ft | 311 kts | 275° |
| 2026-04-30 00:50 | 41.10420 | -94.60351 | 16635 ft | 298 kts | 275° |
| 2026-04-30 00:50 | 41.10467 | -94.63045 | 17698 ft | 297 kts | 274° |
| 2026-04-30 00:50 | 41.10419 | -94.65848 | 17811 ft | 309 kts | 269° |
| 2026-04-30 00:51 | 41.10226 | -94.68768 | 17298 ft | 320 kts | 268° |
| 2026-04-30 00:51 | 41.10009 | -94.71683 | 16943 ft | 317 kts | 268° |
| 2026-04-30 00:51 | 41.09802 | -94.74589 | 16636 ft | 313 kts | 268° |
| 2026-04-30 00:51 | 41.09654 | -94.76531 | 16426 ft | 315 kts | 268° |
| 2026-04-30 00:52 | 41.09431 | -94.79425 | 16054 ft | 315 kts | 268° |
| 2026-04-30 00:52 | 41.09239 | -94.82280 | 15718 ft | 312 kts | 269° |
| 2026-04-30 00:52 | 41.09016 | -94.85138 | 16098 ft | 307 kts | 267° |
| 2026-04-30 00:52 | 41.08744 | -94.87987 | 15711 ft | 322 kts | 267° |
| 2026-04-30 00:53 | 41.08393 | -94.90968 | 15096 ft | 319 kts | 265° |
| 2026-04-30 00:53 | 41.08075 | -94.93794 | 14571 ft | 314 kts | 267° |
| 2026-04-30 00:53 | 41.07681 | -94.96707 | 13648 ft | 320 kts | 264° |
| 2026-04-30 00:53 | 41.07276 | -94.99589 | 12572 ft | 325 kts | 266° |
| 2026-04-30 00:54 | 41.06909 | -95.02508 | 11649 ft | 312 kts | 265° |
| 2026-04-30 00:54 | 41.06623 | -95.05278 | 10649 ft | 297 kts | 270° |
| 2026-04-30 00:54 | 41.06516 | -95.07950 | 10127 ft | 275 kts | 271° |
| 2026-04-30 00:54 | 41.06387 | -95.10429 | 9539 ft | 269 kts | 270° |
| 2026-04-30 00:55 | 41.06201 | -95.12910 | 8442 ft | 272 kts | 268° |
| 2026-04-30 00:55 | 41.06152 | -95.15403 | 7456 ft | 269 kts | 277° |
| 2026-04-30 00:55 | 41.07027 | -95.19985 | 6339 ft | 245 kts | 289° |
| 2026-04-30 00:56 | 41.07541 | -95.22102 | 5769 ft | 239 kts | 290° |
| 2026-04-30 00:56 | 41.08129 | -95.24138 | 5335 ft | 229 kts | 292° |
| 2026-04-30 00:56 | 41.08671 | -95.26031 | 5040 ft | 215 kts | 293° |
| 2026-04-30 00:56 | 41.09213 | -95.27856 | 4787 ft | 213 kts | 291° |
| 2026-04-30 00:57 | 41.09696 | -95.29683 | 4594 ft | 202 kts | 289° |
| 2026-04-30 00:57 | 41.10100 | -95.31327 | 4720 ft | 178 kts | 289° |
| 2026-04-30 00:57 | 41.10461 | -95.32925 | 4821 ft | 182 kts | 287° |
| 2026-04-30 00:57 | 41.10808 | -95.34556 | 4925 ft | 187 kts | 286° |
| 2026-04-30 00:58 | 41.11114 | -95.36282 | 5101 ft | 200 kts | 279° |
| 2026-04-30 00:58 | 41.11267 | -95.38126 | 5225 ft | 206 kts | 275° |
| 2026-04-30 00:58 | 41.11385 | -95.40043 | 4931 ft | 208 kts | 276° |
| 2026-04-30 00:58 | 41.11509 | -95.41947 | 4647 ft | 206 kts | 275° |
| 2026-04-30 00:59 | 41.11630 | -95.43835 | 4375 ft | 205 kts | 276° |
| 2026-04-30 00:59 | 41.11752 | -95.45729 | 4114 ft | 206 kts | 276° |
| 2026-04-30 00:59 | 41.11876 | -95.47604 | 4056 ft | 204 kts | 276° |
| 2026-04-30 00:59 | 41.12000 | -95.49489 | 4074 ft | 206 kts | 276° |
| 2026-04-30 01:00 | 41.12121 | -95.51368 | 4119 ft | 204 kts | 276° |
| 2026-04-30 01:00 | 41.12237 | -95.53253 | 4145 ft | 206 kts | 276° |
| 2026-04-30 01:00 | 41.12356 | -95.55133 | 4122 ft | 204 kts | 275° |
| 2026-04-30 01:00 | 41.12476 | -95.57025 | 4131 ft | 206 kts | 276° |
| 2026-04-30 01:01 | 41.12598 | -95.58911 | 4119 ft | 206 kts | 275° |
| 2026-04-30 01:01 | 41.12747 | -95.60801 | 4130 ft | 204 kts | 279° |
| 2026-04-30 01:01 | 41.12947 | -95.62662 | 4106 ft | 204 kts | 278° |
| 2026-04-30 01:01 | 41.13142 | -95.64530 | 4099 ft | 204 kts | 279° |
| 2026-04-30 01:02 | 41.13620 | -95.66291 | 4112 ft | 204 kts | 295° |
| 2026-04-30 01:02 | 41.14202 | -95.68009 | 4121 ft | 205 kts | 294° |
| 2026-04-30 01:02 | 41.14771 | -95.69740 | 4098 ft | 204 kts | 294° |
| 2026-04-30 01:02 | 41.15326 | -95.71426 | 4078 ft | 189 kts | 294° |
| 2026-04-30 01:03 | 41.15904 | -95.72868 | 4016 ft | 167 kts | 304° |
| 2026-04-30 01:03 | 41.16514 | -95.74093 | 3865 ft | 154 kts | 302° |
| 2026-04-30 01:03 | 41.17101 | -95.75239 | 3767 ft | 148 kts | 305° |
| 2026-04-30 01:03 | 41.17725 | -95.76353 | 3626 ft | 152 kts | 307° |
| 2026-04-30 01:04 | 41.18386 | -95.77425 | 3426 ft | 153 kts | 311° |
| 2026-04-30 01:04 | 41.19095 | -95.78457 | 3230 ft | 148 kts | 313° |
| 2026-04-30 01:04 | 41.19822 | -95.79449 | 3139 ft | 151 kts | 314° |
| 2026-04-30 01:04 | 41.20581 | -95.80395 | 3092 ft | 150 kts | 318° |
| 2026-04-30 01:05 | 41.21381 | -95.81313 | 2957 ft | 152 kts | 320° |
| 2026-04-30 01:05 | 41.22210 | -95.82112 | 2770 ft | 145 kts | 325° |
| 2026-04-30 01:05 | 41.23065 | -95.82851 | 2485 ft | 148 kts | 327° |
| 2026-04-30 01:05 | 41.23907 | -95.83570 | 2270 ft | 142 kts | 326° |
| 2026-04-30 01:06 | 41.24712 | -95.84294 | 2109 ft | 140 kts | 325° |
| 2026-04-30 01:06 | 41.25512 | -95.85031 | 1987 ft | 139 kts | 324° |
| 2026-04-30 01:06 | 41.26306 | -95.85774 | 1800 ft | 143 kts | 324° |
| 2026-04-30 01:06 | 41.27119 | -95.86559 | 1545 ft | 147 kts | 324° |
| 2026-04-30 01:07 | 41.27945 | -95.87360 | 1329 ft | 147 kts | 324° |
| 2026-04-30 01:07 | 41.28776 | -95.88144 | 1124 ft | 146 kts | 325° |
| 2026-04-30 01:07 | 41.29604 | -95.88919 | 998 ft | 140 kts | 326° |
| 2026-04-30 01:07 | 41.30199 | -95.89484 | 987 ft | 51 kts | 322° |
| 2026-04-30 01:08 | 41.30270 | -95.89589 | 991 ft | 6 kts | 226° |
| 2026-04-30 01:08 | 41.30221 | -95.89602 | 991 ft | 7 kts | 175° |
| 2026-04-30 01:08 | 41.30214 | -95.89601 | 992 ft | 2 kts | 177° |
| 2026-04-30 01:08 | 41.30211 | -95.89601 | 994 ft | 1 kts | 178° |
| 2026-04-30 01:09 | 41.30189 | -95.89602 | 988 ft | 7 kts | 182° |
| 2026-04-30 01:09 | 41.30123 | -95.89605 | 993 ft | 10 kts | 181° |
| 2026-04-30 01:09 | 41.30032 | -95.89610 | 989 ft | 12 kts | 198° |
| 2026-04-30 01:09 | 41.29996 | -95.89697 | 990 ft | 11 kts | 258° |
| 2026-04-30 01:10 | 41.29993 | -95.89800 | 991 ft | 9 kts | 307° |
| 2026-04-30 01:10 | 41.30025 | -95.89820 | 991 ft | 4 kts | 350° |
| 2026-04-30 01:10 | 41.30047 | -95.89824 | 996 ft | 1 kts | 352° |